sensor_id;sensor_type;location;lat;lon;timestamp;P1;durP1;ratioP1;P2;durP2;ratioP2
70818;SDS011;58439;51.046;13.692;2022-08-21T00:00:19;56.08;;;28.50;;
70818;SDS011;58439;51.046;13.692;2022-08-21T00:02:57;47.65;;;26.25;;
70818;SDS011;58439;51.046;13.692;2022-08-21T00:05:33;52.47;;;26.23;;
70818;SDS011;58439;51.046;13.692;2022-08-21T00:08:05;57.13;;;26.92;;
70818;SDS011;58439;51.046;13.692;2022-08-21T00:10:33;54.58;;;28.52;;
70818;SDS011;58439;51.046;13.692;2022-08-21T00:13:01;59.35;;;28.52;;
70818;SDS011;58439;51.046;13.692;2022-08-21T00:15:31;62.03;;;29.05;;
70818;SDS011;58439;51.046;13.692;2022-08-21T00:18:02;53.22;;;27.10;;
70818;SDS011;58439;51.046;13.692;2022-08-21T00:20:32;56.53;;;29.00;;
70818;SDS011;58439;51.046;13.692;2022-08-21T00:23:00;58.92;;;29.58;;
70818;SDS011;58439;51.046;13.692;2022-08-21T00:25:28;62.03;;;29.50;;
70818;SDS011;58439;51.046;13.692;2022-08-21T00:27:55;61.55;;;29.70;;
70818;SDS011;58439;51.046;13.692;2022-08-21T00:30:23;64.38;;;30.88;;
70818;SDS011;58439;51.046;13.692;2022-08-21T00:32:53;66.40;;;30.55;;
70818;SDS011;58439;51.046;13.692;2022-08-21T00:35:25;67.25;;;32.03;;
70818;SDS011;58439;51.046;13.692;2022-08-21T00:37:58;66.90;;;31.83;;
70818;SDS011;58439;51.046;13.692;2022-08-21T00:40:27;83.05;;;35.20;;
70818;SDS011;58439;51.046;13.692;2022-08-21T00:43:05;66.13;;;32.30;;
70818;SDS011;58439;51.046;13.692;2022-08-21T00:45:36;67.13;;;33.03;;
70818;SDS011;58439;51.046;13.692;2022-08-21T00:48:03;71.55;;;33.20;;
70818;SDS011;58439;51.046;13.692;2022-08-21T00:50:32;67.68;;;33.67;;
70818;SDS011;58439;51.046;13.692;2022-08-21T00:53:04;72.30;;;33.20;;
70818;SDS011;58439;51.046;13.692;2022-08-21T00:55:34;73.97;;;32.58;;
70818;SDS011;58439;51.046;13.692;2022-08-21T00:58:09;69.38;;;34.50;;
70818;SDS011;58439;51.046;13.692;2022-08-21T01:00:54;74.32;;;34.42;;
70818;SDS011;58439;51.046;13.692;2022-08-21T01:03:22;71.60;;;32.63;;
70818;SDS011;58439;51.046;13.692;2022-08-21T01:05:52;66.07;;;31.33;;
70818;SDS011;58439;51.046;13.692;2022-08-21T01:08:19;69.25;;;32.60;;
70818;SDS011;58439;51.046;13.692;2022-08-21T01:10:48;77.07;;;35.03;;
70818;SDS011;58439;51.046;13.692;2022-08-21T01:13:24;79.68;;;33.55;;
70818;SDS011;58439;51.046;13.692;2022-08-21T01:15:55;72.20;;;33.17;;
70818;SDS011;58439;51.046;13.692;2022-08-21T01:18:27;78.32;;;34.35;;
70818;SDS011;58439;51.046;13.692;2022-08-21T01:21:03;69.55;;;29.40;;
70818;SDS011;58439;51.046;13.692;2022-08-21T01:23:33;65.03;;;30.08;;
70818;SDS011;58439;51.046;13.692;2022-08-21T01:26:03;59.92;;;26.85;;
70818;SDS011;58439;51.046;13.692;2022-08-21T01:28:33;44.30;;;22.48;;
70818;SDS011;58439;51.046;13.692;2022-08-21T01:31:07;37.88;;;19.55;;
70818;SDS011;58439;51.046;13.692;2022-08-21T01:33:38;38.78;;;19.77;;
70818;SDS011;58439;51.046;13.692;2022-08-21T01:36:07;28.98;;;15.68;;
70818;SDS011;58439;51.046;13.692;2022-08-21T01:38:34;23.23;;;13.50;;
70818;SDS011;58439;51.046;13.692;2022-08-21T01:41:01;23.23;;;13.18;;
70818;SDS011;58439;51.046;13.692;2022-08-21T01:43:28;22.25;;;12.25;;
70818;SDS011;58439;51.046;13.692;2022-08-21T01:46:05;23.05;;;12.93;;
70818;SDS011;58439;51.046;13.692;2022-08-21T01:48:33;22.42;;;12.02;;
70818;SDS011;58439;51.046;13.692;2022-08-21T01:51:18;22.65;;;13.10;;
70818;SDS011;58439;51.046;13.692;2022-08-21T01:53:54;19.90;;;12.20;;
70818;SDS011;58439;51.046;13.692;2022-08-21T01:56:28;19.92;;;11.60;;
70818;SDS011;58439;51.046;13.692;2022-08-21T01:59:09;21.98;;;11.93;;
70818;SDS011;58439;51.046;13.692;2022-08-21T02:01:37;20.15;;;11.57;;
70818;SDS011;58439;51.046;13.692;2022-08-21T02:04:18;21.23;;;11.77;;
70818;SDS011;58439;51.046;13.692;2022-08-21T02:06:48;19.92;;;11.27;;
70818;SDS011;58439;51.046;13.692;2022-08-21T02:09:24;18.42;;;11.25;;
70818;SDS011;58439;51.046;13.692;2022-08-21T02:11:59;21.58;;;11.95;;
70818;SDS011;58439;51.046;13.692;2022-08-21T02:14:27;21.35;;;10.98;;
70818;SDS011;58439;51.046;13.692;2022-08-21T02:17:10;20.88;;;11.57;;
70818;SDS011;58439;51.046;13.692;2022-08-21T02:19:46;19.25;;;11.25;;
70818;SDS011;58439;51.046;13.692;2022-08-21T02:22:24;21.63;;;12.00;;
70818;SDS011;58439;51.046;13.692;2022-08-21T02:24:56;20.73;;;11.98;;
70818;SDS011;58439;51.046;13.692;2022-08-21T02:27:24;20.58;;;11.93;;
70818;SDS011;58439;51.046;13.692;2022-08-21T02:29:54;20.60;;;12.80;;
70818;SDS011;58439;51.046;13.692;2022-08-21T02:32:24;20.42;;;12.68;;
70818;SDS011;58439;51.046;13.692;2022-08-21T02:34:52;19.92;;;12.00;;
70818;SDS011;58439;51.046;13.692;2022-08-21T02:37:19;23.00;;;13.30;;
70818;SDS011;58439;51.046;13.692;2022-08-21T02:39:47;24.92;;;13.05;;
70818;SDS011;58439;51.046;13.692;2022-08-21T02:42:14;27.10;;;14.57;;
70818;SDS011;58439;51.046;13.692;2022-08-21T02:44:46;22.25;;;13.73;;
70818;SDS011;58439;51.046;13.692;2022-08-21T02:47:14;23.80;;;13.77;;
70818;SDS011;58439;51.046;13.692;2022-08-21T02:49:41;22.65;;;13.50;;
70818;SDS011;58439;51.046;13.692;2022-08-21T02:52:10;21.48;;;13.00;;
70818;SDS011;58439;51.046;13.692;2022-08-21T02:54:38;21.88;;;13.57;;
70818;SDS011;58439;51.046;13.692;2022-08-21T02:57:05;25.75;;;14.00;;
70818;SDS011;58439;51.046;13.692;2022-08-21T02:59:32;24.83;;;13.95;;
70818;SDS011;58439;51.046;13.692;2022-08-21T03:01:59;22.98;;;13.07;;
70818;SDS011;58439;51.046;13.692;2022-08-21T03:04:26;24.45;;;13.50;;
70818;SDS011;58439;51.046;13.692;2022-08-21T03:06:53;23.00;;;14.23;;
70818;SDS011;58439;51.046;13.692;2022-08-21T03:09:20;24.15;;;13.88;;
70818;SDS011;58439;51.046;13.692;2022-08-21T03:11:47;24.17;;;14.40;;
70818;SDS011;58439;51.046;13.692;2022-08-21T03:14:14;21.77;;;13.18;;
70818;SDS011;58439;51.046;13.692;2022-08-21T03:16:41;23.40;;;14.38;;
70818;SDS011;58439;51.046;13.692;2022-08-21T03:19:08;24.75;;;13.45;;
70818;SDS011;58439;51.046;13.692;2022-08-21T03:21:36;22.77;;;13.43;;
70818;SDS011;58439;51.046;13.692;2022-08-21T03:24:06;23.05;;;14.27;;
70818;SDS011;58439;51.046;13.692;2022-08-21T03:26:40;23.10;;;13.40;;
70818;SDS011;58439;51.046;13.692;2022-08-21T03:29:07;25.10;;;13.68;;
70818;SDS011;58439;51.046;13.692;2022-08-21T03:31:34;19.90;;;12.05;;
70818;SDS011;58439;51.046;13.692;2022-08-21T03:34:01;21.88;;;13.38;;
70818;SDS011;58439;51.046;13.692;2022-08-21T03:36:30;24.77;;;14.63;;
70818;SDS011;58439;51.046;13.692;2022-08-21T03:38:57;23.10;;;13.65;;
70818;SDS011;58439;51.046;13.692;2022-08-21T03:41:25;22.10;;;13.55;;
70818;SDS011;58439;51.046;13.692;2022-08-21T03:43:52;23.52;;;14.00;;
70818;SDS011;58439;51.046;13.692;2022-08-21T03:46:20;26.67;;;14.63;;
70818;SDS011;58439;51.046;13.692;2022-08-21T03:48:47;21.25;;;13.65;;
70818;SDS011;58439;51.046;13.692;2022-08-21T03:51:15;28.33;;;15.50;;
70818;SDS011;58439;51.046;13.692;2022-08-21T03:53:42;30.33;;;17.08;;
70818;SDS011;58439;51.046;13.692;2022-08-21T03:56:11;28.17;;;16.40;;
70818;SDS011;58439;51.046;13.692;2022-08-21T03:58:45;29.80;;;15.52;;
70818;SDS011;58439;51.046;13.692;2022-08-21T04:01:23;29.42;;;16.02;;
70818;SDS011;58439;51.046;13.692;2022-08-21T04:03:50;28.15;;;15.95;;
70818;SDS011;58439;51.046;13.692;2022-08-21T04:06:23;30.20;;;16.50;;
70818;SDS011;58439;51.046;13.692;2022-08-21T04:08:55;28.50;;;16.63;;
70818;SDS011;58439;51.046;13.692;2022-08-21T04:11:22;30.83;;;16.60;;
70818;SDS011;58439;51.046;13.692;2022-08-21T04:13:50;28.27;;;16.17;;
70818;SDS011;58439;51.046;13.692;2022-08-21T04:16:17;31.50;;;16.83;;
70818;SDS011;58439;51.046;13.692;2022-08-21T04:18:45;33.45;;;17.73;;
70818;SDS011;58439;51.046;13.692;2022-08-21T04:21:12;33.50;;;17.42;;
70818;SDS011;58439;51.046;13.692;2022-08-21T04:23:40;38.70;;;18.27;;
70818;SDS011;58439;51.046;13.692;2022-08-21T04:26:08;30.35;;;16.73;;
70818;SDS011;58439;51.046;13.692;2022-08-21T04:28:35;27.73;;;16.58;;
70818;SDS011;58439;51.046;13.692;2022-08-21T04:31:02;30.45;;;16.75;;
70818;SDS011;58439;51.046;13.692;2022-08-21T04:33:29;30.23;;;16.77;;
70818;SDS011;58439;51.046;13.692;2022-08-21T04:35:56;30.17;;;17.45;;
70818;SDS011;58439;51.046;13.692;2022-08-21T04:38:23;33.47;;;18.10;;
70818;SDS011;58439;51.046;13.692;2022-08-21T04:40:50;33.38;;;17.75;;
70818;SDS011;58439;51.046;13.692;2022-08-21T04:43:18;31.77;;;17.10;;
70818;SDS011;58439;51.046;13.692;2022-08-21T04:45:47;30.42;;;16.92;;
70818;SDS011;58439;51.046;13.692;2022-08-21T04:48:21;28.13;;;16.92;;
70818;SDS011;58439;51.046;13.692;2022-08-21T04:51:03;29.05;;;16.40;;
70818;SDS011;58439;51.046;13.692;2022-08-21T04:53:52;28.65;;;16.02;;
70818;SDS011;58439;51.046;13.692;2022-08-21T04:56:33;30.77;;;17.58;;
70818;SDS011;58439;51.046;13.692;2022-08-21T04:59:07;30.10;;;16.55;;
70818;SDS011;58439;51.046;13.692;2022-08-21T05:01:47;31.20;;;17.55;;
70818;SDS011;58439;51.046;13.692;2022-08-21T05:04:16;27.45;;;15.70;;
70818;SDS011;58439;51.046;13.692;2022-08-21T05:06:49;33.72;;;17.20;;
70818;SDS011;58439;51.046;13.692;2022-08-21T05:09:21;32.92;;;17.85;;
70818;SDS011;58439;51.046;13.692;2022-08-21T05:11:50;38.72;;;19.52;;
70818;SDS011;58439;51.046;13.692;2022-08-21T05:14:20;32.42;;;19.15;;
70818;SDS011;58439;51.046;13.692;2022-08-21T05:16:47;32.63;;;17.95;;
70818;SDS011;58439;51.046;13.692;2022-08-21T05:19:15;32.28;;;18.40;;
70818;SDS011;58439;51.046;13.692;2022-08-21T05:21:42;30.70;;;18.60;;
70818;SDS011;58439;51.046;13.692;2022-08-21T05:24:12;30.85;;;19.13;;
70818;SDS011;58439;51.046;13.692;2022-08-21T05:26:42;33.13;;;18.35;;
70818;SDS011;58439;51.046;13.692;2022-08-21T05:29:12;38.58;;;20.25;;
70818;SDS011;58439;51.046;13.692;2022-08-21T05:31:42;31.08;;;19.58;;
70818;SDS011;58439;51.046;13.692;2022-08-21T05:34:10;35.67;;;19.83;;
